Time;durP1;ratioP1;P1;durP2;ratioP2;P2;SDS_P1;SDS_P2;PMS_P1;PMS_P2;Temp;Humidity;BMP_temperature;BMP_pressure;BME280_temperature;BME280_humidity;BME280_pressure;Samples;Min_cycle;Max_cycle;Signal;HPM_P1;HPM_P2
2022/05/03 00:00:28;;;;;;;23.17;11.00;;;;;;;;;;4971012;28;20212;-79
2022/05/03 00:03:00;;;;;;;17.47;11.10;;;;;;;;;;4976659;28;20748;-80
2022/05/03 00:05:33;;;;;;;20.80;10.57;;;;;;;;;;4979874;28;20248;-79
2022/05/03 00:08:05;;;;;;;18.97;10.93;;;;;;;;;;4979083;28;20674;-80
2022/05/03 00:10:37;;;;;;;17.37;11.23;;;;;;;;;;4979928;28;20210;-80
2022/05/03 00:13:07;;;;;;;17.37;10.57;;;;;;;;;;4973240;28;20638;-80
2022/05/03 00:15:36;;;;;;;21.13;10.83;;;;;;;;;;4979580;28;20210;-79
2022/05/03 00:18:04;;;;;;;21.57;10.50;;;;;;;;;;4978825;28;20222;-81
2022/05/03 00:20:31;;;;;;;21.13;10.50;;;;;;;;;;4975214;28;20807;-81
2022/05/03 00:23:00;;;;;;;16.80;10.40;;;;;;;;;;4974103;28;20234;-81
2022/05/03 00:25:29;;;;;;;18.87;11.00;;;;;;;;;;4976215;28;20220;-81
2022/05/03 00:27:56;;;;;;;19.37;11.63;;;;;;;;;;4978722;28;20209;-80
2022/05/03 00:30:24;;;;;;;19.30;11.10;;;;;;;;;;4974569;28;20218;-80
2022/05/03 00:32:53;;;;;;;21.53;11.57;;;;;;;;;;4971569;28;20229;-81
2022/05/03 00:35:22;;;;;;;20.47;10.40;;;;;;;;;;4972255;28;20245;-80
2022/05/03 00:37:52;;;;;;;16.53;10.20;;;;;;;;;;4976629;28;20205;-81
2022/05/03 00:40:20;;;;;;;17.53;9.43;;;;;;;;;;4971828;28;20581;-81
2022/05/03 00:42:53;;;;;;;17.87;10.37;;;;;;;;;;4976196;28;20221;-80
2022/05/03 00:45:27;;;;;;;16.30;10.27;;;;;;;;;;4974685;28;20248;-82
2022/05/03 00:47:55;;;;;;;19.80;10.20;;;;;;;;;;4974920;28;20250;-80
2022/05/03 00:50:34;;;;;;;16.07;10.37;;;;;;;;;;4975683;28;20663;-80
2022/05/03 00:53:03;;;;;;;18.70;10.73;;;;;;;;;;4977591;28;20236;-79
2022/05/03 00:55:39;;;;;;;18.33;10.30;;;;;;;;;;4981998;28;20202;-80
2022/05/03 00:58:16;;;;;;;15.43;10.47;;;;;;;;;;4987668;28;20217;-80
2022/05/03 01:00:47;;;;;;;20.30;9.93;;;;;;;;;;4982979;28;20210;-80
2022/05/03 01:03:19;;;;;;;17.90;10.77;;;;;;;;;;4970963;28;20228;-80
2022/05/03 01:05:47;;;;;;;17.03;10.43;;;;;;;;;;4971063;28;20297;-80
2022/05/03 01:08:20;;;;;;;20.53;11.33;;;;;;;;;;4971512;28;20297;-81
2022/05/03 01:10:48;;;;;;;15.83;10.13;;;;;;;;;;4971873;28;20225;-80
2022/05/03 01:13:21;;;;;;;14.13;9.87;;;;;;;;;;4976198;28;20260;-80
2022/05/03 01:15:52;;;;;;;17.13;10.43;;;;;;;;;;4971755;28;20804;-80
2022/05/03 01:18:26;;;;;;;15.37;10.50;;;;;;;;;;4974820;28;20214;-80
2022/05/03 01:21:00;;;;;;;18.63;10.47;;;;;;;;;;4973419;28;20201;-80
2022/05/03 01:23:45;;;;;;;16.63;10.73;;;;;;;;;;4971045;28;20233;-81
2022/05/03 01:26:23;;;;;;;19.83;10.33;;;;;;;;;;4970716;28;20249;-81
2022/05/03 01:28:57;;;;;;;13.87;10.27;;;;;;;;;;4973662;28;20225;-79
2022/05/03 01:31:24;;;;;;;18.00;10.23;;;;;;;;;;4972633;28;20216;-79
2022/05/03 01:33:52;;;;;;;16.70;10.50;;;;;;;;;;4972539;28;20459;-79
2022/05/03 01:36:25;;;;;;;15.73;9.67;;;;;;;;;;4973534;28;20305;-79
2022/05/03 01:38:57;;;;;;;20.53;10.33;;;;;;;;;;4973781;28;20255;-79
2022/05/03 01:41:29;;;;;;;14.53;10.07;;;;;;;;;;4973909;28;20752;-80
2022/05/03 01:44:07;;;;;;;18.17;10.47;;;;;;;;;;4971636;28;20296;-79
2022/05/03 01:46:36;;;;;;;15.47;10.63;;;;;;;;;;4974056;28;20677;-79
2022/05/03 01:52:05;;;;;;;17.93;11.00;;;;;;;;;;4973443;28;20196;-79
2022/05/03 01:54:47;;;;;;;14.97;10.50;;;;;;;;;;4952854;28;20206;-79
2022/05/03 01:57:22;;;;;;;17.50;10.20;;;;;;;;;;4970481;28;20201;-79
2022/05/03 01:59:59;;;;;;;19.90;10.80;;;;;;;;;;4968128;28;20292;-79
2022/05/03 02:02:27;;;;;;;16.87;10.23;;;;;;;;;;4971201;28;20308;-80
2022/05/03 02:05:12;;;;;;;16.00;10.60;;;;;;;;;;4974509;28;20626;-79
2022/05/03 02:07:47;;;;;;;16.97;9.27;;;;;;;;;;4976835;28;20216;-79
2022/05/03 02:10:19;;;;;;;14.70;9.60;;;;;;;;;;4980695;28;20223;-79
2022/05/03 02:12:50;;;;;;;15.63;10.33;;;;;;;;;;4972307;28;20252;-80
2022/05/03 02:15:23;;;;;;;14.77;10.07;;;;;;;;;;4973239;28;20213;-80
2022/05/03 02:17:54;;;;;;;18.50;9.90;;;;;;;;;;4972105;28;20225;-80
2022/05/03 02:20:33;;;;;;;16.00;10.70;;;;;;;;;;4970330;28;20214;-80
2022/05/03 02:23:15;;;;;;;24.77;10.53;;;;;;;;;;4972417;28;20233;-80
2022/05/03 02:25:57;;;;;;;17.30;9.73;;;;;;;;;;4968309;28;20544;-79
2022/05/03 02:28:25;;;;;;;16.00;10.43;;;;;;;;;;4971438;28;20575;-79
2022/05/03 02:30:54;;;;;;;15.93;10.43;;;;;;;;;;4971859;28;20721;-79
2022/05/03 02:33:22;;;;;;;15.93;10.70;;;;;;;;;;4971696;28;20229;-80
2022/05/03 02:35:50;;;;;;;17.90;9.93;;;;;;;;;;4969311;28;20229;-80
2022/05/03 02:38:21;;;;;;;17.63;10.27;;;;;;;;;;4969994;28;20229;-79
2022/05/03 02:40:53;;;;;;;18.73;10.40;;;;;;;;;;4968125;28;20285;-79
2022/05/03 02:43:25;;;;;;;21.00;9.63;;;;;;;;;;4971521;28;20754;-79
2022/05/03 02:45:58;;;;;;;15.37;9.63;;;;;;;;;;4971872;28;20197;-79
2022/05/03 02:48:30;;;;;;;18.23;10.00;;;;;;;;;;4967983;28;20201;-79
2022/05/03 02:51:00;;;;;;;16.03;9.67;;;;;;;;;;4971406;28;20222;-79
2022/05/03 02:53:33;;;;;;;14.90;9.80;;;;;;;;;;4970983;28;20228;-79
2022/05/03 02:56:04;;;;;;;16.33;9.83;;;;;;;;;;4969398;28;20198;-80
2022/05/03 02:58:39;;;;;;;16.53;10.50;;;;;;;;;;4965298;28;20209;-79
2022/05/03 03:04:02;;;;;;;15.10;9.00;;;;;;;;;;4969591;28;20232;-79
2022/05/03 03:06:32;;;;;;;15.87;9.73;;;;;;;;;;4972728;28;20237;-79
2022/05/03 03:09:01;;;;;;;15.93;10.00;;;;;;;;;;4969674;28;20229;-79
2022/05/03 03:11:36;;;;;;;13.50;9.30;;;;;;;;;;4972057;28;20213;-78
2022/05/03 03:14:08;;;;;;;15.63;9.13;;;;;;;;;;4967293;28;20202;-79
2022/05/03 03:16:42;;;;;;;17.90;8.87;;;;;;;;;;4972529;28;20218;-79
2022/05/03 03:19:13;;;;;;;16.63;9.77;;;;;;;;;;4969635;28;20256;-80
2022/05/03 03:21:41;;;;;;;16.07;9.13;;;;;;;;;;4967940;28;20213;-80
2022/05/03 03:24:10;;;;;;;16.60;9.67;;;;;;;;;;4974367;28;20210;-79
2022/05/03 03:26:37;;;;;;;12.57;9.00;;;;;;;;;;4973004;28;20214;-79
2022/05/03 03:29:05;;;;;;;15.37;9.83;;;;;;;;;;4975416;28;20312;-79
2022/05/03 03:31:33;;;;;;;15.50;9.37;;;;;;;;;;4975759;28;21216;-80
2022/05/03 03:34:04;;;;;;;16.03;9.47;;;;;;;;;;4976703;28;20488;-80
2022/05/03 03:36:32;;;;;;;14.57;10.30;;;;;;;;;;4969551;28;20221;-80
2022/05/03 03:38:59;;;;;;;14.90;10.13;;;;;;;;;;4973611;28;20209;-81
2022/05/03 03:41:26;;;;;;;20.93;9.83;;;;;;;;;;4968584;28;20270;-80
2022/05/03 03:43:54;;;;;;;14.37;9.77;;;;;;;;;;4975041;28;20233;-80
2022/05/03 03:46:21;;;;;;;31.10;9.97;;;;;;;;;;4976951;28;20214;-79
2022/05/03 03:48:48;;;;;;;15.67;9.97;;;;;;;;;;4974522;28;20202;-80
2022/05/03 03:51:17;;;;;;;18.13;9.13;;;;;;;;;;4975361;28;20206;-80
2022/05/03 03:53:48;;;;;;;13.03;9.03;;;;;;;;;;4980161;28;20740;-80
2022/05/03 03:56:16;;;;;;;19.83;9.60;;;;;;;;;;4979454;28;20662;-80
2022/05/03 03:58:43;;;;;;;18.90;10.53;;;;;;;;;;4976264;28;20216;-79
2022/05/03 04:01:10;;;;;;;20.67;9.90;;;;;;;;;;4978880;28;20632;-81
2022/05/03 04:03:39;;;;;;;17.43;10.40;;;;;;;;;;4976914;28;20234;-81
2022/05/03 04:06:06;;;;;;;15.80;9.83;;;;;;;;;;4976595;28;20216;-81
2022/05/03 04:08:34;;;;;;;14.47;9.77;;;;;;;;;;4978133;28;20252;-81
2022/05/03 04:11:14;;;;;;;16.70;9.73;;;;;;;;;;4977097;28;20265;-80
2022/05/03 04:13:41;;;;;;;16.37;9.73;;;;;;;;;;4975448;28;20340;-81
2022/05/03 04:16:09;;;;;;;13.10;9.27;;;;;;;;;;4974978;28;20272;-80
2022/05/03 04:18:45;;;;;;;14.10;8.90;;;;;;;;;;4976309;28;20206;-81
2022/05/03 04:21:13;;;;;;;17.43;9.50;;;;;;;;;;4974572;28;20202;-81
2022/05/03 04:23:42;;;;;;;15.03;8.63;;;;;;;;;;4976425;28;20249;-81
2022/05/03 04:26:10;;;;;;;21.70;9.47;;;;;;;;;;4984638;28;20201;-80
2022/05/03 04:28:38;;;;;;;15.00;9.60;;;;;;;;;;4995449;28;20202;-80
2022/05/03 04:31:06;;;;;;;16.20;9.37;;;;;;;;;;4982837;28;20221;-79
2022/05/03 04:33:33;;;;;;;18.80;10.17;;;;;;;;;;4975879;28;20226;-81
2022/05/03 04:36:01;;;;;;;29.50;9.80;;;;;;;;;;4979618;28;20209;-80
2022/05/03 04:38:28;;;;;;;24.50;9.97;;;;;;;;;;4977880;28;20217;-79
2022/05/03 04:41:03;;;;;;;20.20;9.30;;;;;;;;;;4981453;28;20209;-81
2022/05/03 04:43:31;;;;;;;16.17;8.57;;;;;;;;;;4977536;28;20293;-81
2022/05/03 04:45:58;;;;;;;18.23;9.20;;;;;;;;;;4975963;28;20216;-80
2022/05/03 04:48:25;;;;;;;15.40;8.47;;;;;;;;;;4976302;28;20264;-80
2022/05/03 04:50:52;;;;;;;18.67;8.70;;;;;;;;;;4979037;28;20229;-80
2022/05/03 04:53:21;;;;;;;16.70;9.00;;;;;;;;;;4976972;28;20716;-80
2022/05/03 04:55:48;;;;;;;22.33;9.40;;;;;;;;;;4978852;28;20229;-80
2022/05/03 04:58:17;;;;;;;18.73;9.50;;;;;;;;;;4977937;28;20209;-80
2022/05/03 05:00:45;;;;;;;15.63;9.30;;;;;;;;;;4969537;28;20273;-80
2022/05/03 05:03:13;;;;;;;19.17;9.43;;;;;;;;;;4974828;28;20225;-81
2022/05/03 05:05:40;;;;;;;25.57;10.10;;;;;;;;;;4972769;28;20720;-80
2022/05/03 05:08:10;;;;;;;20.07;9.53;;;;;;;;;;4973456;28;20777;-80
2022/05/03 05:10:39;;;;;;;18.73;10.17;;;;;;;;;;4974413;28;20260;-80
2022/05/03 05:13:06;;;;;;;19.10;9.47;;;;;;;;;;4976573;28;20222;-80
2022/05/03 05:15:35;;;;;;;28.73;9.07;;;;;;;;;;4973356;28;20216;-80
2022/05/03 05:18:02;;;;;;;22.03;9.00;;;;;;;;;;4971674;28;20210;-80
2022/05/03 05:20:29;;;;;;;22.93;9.23;;;;;;;;;;4971149;28;20217;-79
2022/05/03 05:22:56;;;;;;;16.10;9.07;;;;;;;;;;4976494;28;20245;-80
2022/05/03 05:25:24;;;;;;;16.50;8.43;;;;;;;;;;4972454;28;20206;-80
2022/05/03 05:27:51;;;;;;;16.17;9.27;;;;;;;;;;4968798;28;20279;-81
2022/05/03 05:30:19;;;;;;;19.80;8.60;;;;;;;;;;4972769;28;20221;-79
2022/05/03 05:36:02;;;;;;;16.17;9.13;;;;;;;;;;4971261;28;20202;-82
2022/05/03 05:38:31;;;;;;;15.50;9.57;;;;;;;;;;4972777;28;20233;-80
2022/05/03 05:40:58;;;;;;;13.10;9.03;;;;;;;;;;4975404;28;20214;-82
2022/05/03 05:43:27;;;;;;;19.00;9.20;;;;;;;;;;4973920;28;20265;-82
2022/05/03 05:45:56;;;;;;;24.63;9.50;;;;;;;;;;4971000;28;20365;-80
2022/05/03 05:48:26;;;;;;;18.13;9.10;;;;;;;;;;4972239;28;20281;-82
2022/05/03 05:50:54;;;;;;;19.50;9.43;;;;;;;;;;4973277;28;20248;-81
2022/05/03 05:53:34;;;;;;;23.57;9.13;;;;;;;;;;4973596;28;20321;-82
2022/05/03 05:56:04;;;;;;;17.93;8.87;;;;;;;;;;4971342;28;20210;-81
2022/05/03 05:58:32;;;;;;;23.27;9.53;;;;;;;;;;4976199;28;20260;-82
2022/05/03 06:01:01;;;;;;;23.40;9.40;;;;;;;;;;4977598;28;20198;-81
2022/05/03 06:03:29;;;;;;;16.33;9.73;;;;;;;;;;4973550;28;20225;-82
2022/05/03 06:05:57;;;;;;;19.93;10.00;;;;;;;;;;4973373;28;20208;-83
2022/05/03 06:08:26;;;;;;;21.30;10.03;;;;;;;;;;4975402;28;20237;-81
2022/05/03 06:10:57;;;;;;;15.93;9.93;;;;;;;;;;4972447;28;20240;-81
2022/05/03 06:13:25;;;;;;;15.73;9.53;;;;;;;;;;4974012;28;20264;-82
2022/05/03 06:15:53;;;;;;;20.97;10.27;;;;;;;;;;4976400;28;20284;-82
2022/05/03 06:18:20;;;;;;;16.93;9.00;;;;;;;;;;4973797;28;20209;-82
2022/05/03 06:20:48;;;;;;;16.57;9.20;;;;;;;;;;4972021;28;20598;-81
2022/05/03 06:23:15;;;;;;;19.43;9.23;;;;;;;;;;4974099;28;20233;-82
2022/05/03 06:25:44;;;;;;;18.40;9.33;;;;;;;;;;4971014;28;20236;-82
2022/05/03 06:28:11;;;;;;;20.00;9.77;;;;;;;;;;4970737;28;20690;-82
2022/05/03 06:30:40;;;;;;;17.33;9.23;;;;;;;;;;4975697;28;20689;-81
2022/05/03 06:33:07;;;;;;;23.60;10.43;;;;;;;;;;4967634;28;20232;-80
2022/05/03 06:35:34;;;;;;;17.60;9.47;;;;;;;;;;4973096;28;20228;-81
2022/05/03 06:38:03;;;;;;;18.70;8.93;;;;;;;;;;4972571;28;20201;-82
2022/05/03 06:40:31;;;;;;;24.80;9.17;;;;;;;;;;4975493;28;20252;-80
2022/05/03 06:43:14;;;;;;;15.17;9.63;;;;;;;;;;5000456;23;20328;-81
2022/05/03 06:45:42;;;;;;;16.33;9.30;;;;;;;;;;4977468;28;20204;-81
2022/05/03 06:48:12;;;;;;;15.90;9.20;;;;;;;;;;4981640;28;20966;-81
2022/05/03 06:50:47;;;;;;;16.88;10.13;;;;;;;;;;4980043;28;20451;-81
2022/05/03 06:53:14;;;;;;;17.57;9.53;;;;;;;;;;4977585;28;20251;-81
2022/05/03 06:55:47;;;;;;;14.70;8.77;;;;;;;;;;4977179;28;20232;-81
2022/05/03 06:58:16;;;;;;;20.63;8.73;;;;;;;;;;4977068;28;20219;-80
2022/05/03 07:00:44;;;;;;;13.27;8.60;;;;;;;;;;4977659;28;20569;-80
2022/05/03 07:03:12;;;;;;;13.97;8.73;;;;;;;;;;4981370;28;20799;-80
2022/05/03 07:05:55;;;;;;;16.13;8.57;;;;;;;;;;4977133;28;20202;-81
2022/05/03 07:08:30;;;;;;;13.63;8.20;;;;;;;;;;4979813;28;20252;-81
2022/05/03 07:11:00;;;;;;;14.83;8.53;;;;;;;;;;4980363;28;20231;-80
2022/05/03 07:13:32;;;;;;;17.00;8.57;;;;;;;;;;4982923;28;20260;-80
2022/05/03 07:16:00;;;;;;;17.83;9.00;;;;;;;;;;4981079;28;20226;-81
2022/05/03 07:23:59;;;;;;;12.27;7.20;;;;;;;;;;4984674;28;20224;-81
2022/05/03 07:26:26;;;;;;;13.27;7.00;;;;;;;;;;4988266;28;20217;-80
2022/05/03 07:28:55;;;;;;;12.33;6.80;;;;;;;;;;4982858;28;20213;-81
2022/05/03 07:31:23;;;;;;;10.23;6.33;;;;;;;;;;4987960;28;20239;-82
2022/05/03 07:33:51;;;;;;;8.87;6.27;;;;;;;;;;4990021;28;20229;-81
2022/05/03 07:36:23;;;;;;;8.57;6.67;;;;;;;;;;4986175;28;20217;-82
2022/05/03 07:38:51;;;;;;;9.20;6.10;;;;;;;;;;4989248;28;20216;-82
2022/05/03 07:41:19;;;;;;;12.23;6.60;;;;;;;;;;4988521;28;20626;-82
2022/05/03 07:43:49;;;;;;;11.47;6.13;;;;;;;;;;4986956;28;20701;-81
2022/05/03 07:46:18;;;;;;;11.00;6.00;;;;;;;;;;4990318;28;20201;-80
2022/05/03 07:48:45;;;;;;;13.70;6.40;;;;;;;;;;4988991;28;20267;-80
2022/05/03 07:51:21;;;;;;;10.93;6.63;;;;;;;;;;4991982;28;20237;-81
2022/05/03 07:53:48;;;;;;;8.83;6.00;;;;;;;;;;4989300;28;20229;-81
2022/05/03 07:56:15;;;;;;;11.07;6.20;;;;;;;;;;4990814;28;20211;-81
2022/05/03 07:58:42;;;;;;;10.57;6.53;;;;;;;;;;4987607;28;20219;-81
2022/05/03 08:01:10;;;;;;;10.20;6.33;;;;;;;;;;4986961;28;20252;-81
2022/05/03 08:03:38;;;;;;;9.23;6.00;;;;;;;;;;4986473;28;20221;-81
2022/05/03 08:06:15;;;;;;;10.20;6.37;;;;;;;;;;4993349;28;20248;-82
2022/05/03 08:08:42;;;;;;;12.80;5.80;;;;;;;;;;4996357;28;20197;-82
2022/05/03 08:11:09;;;;;;;9.60;6.10;;;;;;;;;;4991174;28;20229;-82
2022/05/03 08:13:37;;;;;;;16.37;5.80;;;;;;;;;;4988583;28;20229;-83
2022/05/03 08:16:05;;;;;;;9.33;5.53;;;;;;;;;;4987820;28;20269;-83
2022/05/03 08:18:32;;;;;;;9.63;5.83;;;;;;;;;;4986286;28;20750;-83
2022/05/03 08:21:03;;;;;;;12.80;6.37;;;;;;;;;;4991649;28;20205;-82
2022/05/03 08:23:40;;;;;;;8.90;5.57;;;;;;;;;;4991756;28;20263;-82
2022/05/03 08:26:07;;;;;;;11.60;6.10;;;;;;;;;;4990045;28;20291;-82
2022/05/03 08:28:36;;;;;;;9.70;5.93;;;;;;;;;;4990087;28;20209;-82
2022/05/03 08:31:03;;;;;;;13.77;6.63;;;;;;;;;;4990933;28;20217;-83
2022/05/03 08:33:31;;;;;;;9.97;6.30;;;;;;;;;;4992142;28;20257;-82
2022/05/03 08:35:59;;;;;;;10.03;6.50;;;;;;;;;;4986708;28;20241;-81
2022/05/03 08:44:01;;;;;;;13.13;6.93;;;;;;;;;;4986001;28;20287;-82
2022/05/03 08:46:33;;;;;;;11.97;6.60;;;;;;;;;;4990734;28;20201;-82
2022/05/03 08:49:02;;;;;;;9.37;6.80;;;;;;;;;;4978660;28;20213;-82
2022/05/03 08:51:31;;;;;;;13.37;6.53;;;;;;;;;;4993242;28;20268;-81
2022/05/03 08:54:00;;;;;;;13.33;6.63;;;;;;;;;;4984460;28;20235;-82
2022/05/03 08:56:27;;;;;;;11.77;6.87;;;;;;;;;;4986031;28;20207;-81
2022/05/03 08:58:55;;;;;;;10.97;6.63;;;;;;;;;;4986716;28;20696;-82
2022/05/03 09:01:24;;;;;;;9.83;6.90;;;;;;;;;;4988440;28;20216;-81
2022/05/03 09:03:51;;;;;;;15.00;7.13;;;;;;;;;;4979872;28;20236;-81
2022/05/03 09:06:19;;;;;;;12.60;6.80;;;;;;;;;;4987087;28;20209;-81
2022/05/03 09:08:51;;;;;;;13.17;6.43;;;;;;;;;;4985360;28;20575;-81
2022/05/03 09:11:23;;;;;;;11.30;7.00;;;;;;;;;;4988598;28;20225;-82
2022/05/03 09:13:50;;;;;;;15.17;7.10;;;;;;;;;;4985685;28;20221;-81
2022/05/03 09:16:18;;;;;;;11.60;7.40;;;;;;;;;;4987435;28;20247;-81
2022/05/03 09:18:46;;;;;;;11.83;6.47;;;;;;;;;;4988542;28;20642;-81
2022/05/03 09:24:18;;;;;;;10.10;6.17;;;;;;;;;;4987488;28;20220;-82
2022/05/03 09:26:52;;;;;;;11.87;7.33;;;;;;;;;;4987231;28;20211;-81
2022/05/03 09:29:20;;;;;;;14.77;7.23;;;;;;;;;;4983442;28;20254;-81
2022/05/03 09:31:48;;;;;;;15.00;7.17;;;;;;;;;;4984308;28;20228;-81
2022/05/03 09:34:19;;;;;;;13.10;7.70;;;;;;;;;;4982410;28;20305;-81
2022/05/03 09:36:47;;;;;;;10.77;7.33;;;;;;;;;;4987848;28;20260;-81
2022/05/03 09:39:22;;;;;;;12.03;7.10;;;;;;;;;;4984813;28;20605;-80
2022/05/03 09:42:06;;;;;;;11.83;7.20;;;;;;;;;;4986078;28;20710;-80
2022/05/03 09:44:36;;;;;;;11.13;6.53;;;;;;;;;;4988143;28;20212;-81
2022/05/03 09:47:07;;;;;;;10.40;7.27;;;;;;;;;;4985165;28;20288;-80
2022/05/03 09:49:36;;;;;;;12.50;7.47;;;;;;;;;;4985185;28;20213;-80
2022/05/03 09:52:03;;;;;;;11.17;7.60;;;;;;;;;;4986756;28;20218;-81
2022/05/03 09:54:30;;;;;;;15.97;7.53;;;;;;;;;;4988681;28;20240;-81
2022/05/03 09:56:58;;;;;;;13.13;7.17;;;;;;;;;;4985405;28;20665;-80
2022/05/03 09:59:27;;;;;;;18.23;7.70;;;;;;;;;;4984377;28;20276;-81
2022/05/03 10:01:56;;;;;;;13.57;7.60;;;;;;;;;;4987169;28;20232;-80
2022/05/03 10:04:23;;;;;;;13.67;7.87;;;;;;;;;;4987302;28;20233;-81
2022/05/03 10:06:50;;;;;;;14.13;7.30;;;;;;;;;;4983616;28;20216;-81
2022/05/03 10:09:18;;;;;;;13.87;7.03;;;;;;;;;;4991023;28;20784;-82
2022/05/03 10:11:46;;;;;;;11.43;7.67;;;;;;;;;;4990710;28;20681;-81
2022/05/03 10:14:15;;;;;;;13.53;7.97;;;;;;;;;;4987181;28;20224;-81
2022/05/03 10:22:23;;;;;;;12.10;7.23;;;;;;;;;;4990699;28;20294;-81
2022/05/03 10:24:56;;;;;;;12.93;6.90;;;;;;;;;;4993848;28;20618;-81
2022/05/03 10:27:24;;;;;;;14.87;7.83;;;;;;;;;;4990959;28;20212;-81
2022/05/03 10:30:06;;;;;;;15.80;8.10;;;;;;;;;;4993937;28;20216;-81
2022/05/03 10:32:34;;;;;;;14.23;7.57;;;;;;;;;;4993291;28;20309;-80
2022/05/03 10:35:04;;;;;;;10.53;6.67;;;;;;;;;;4986932;28;20274;-80
2022/05/03 10:37:50;;;;;;;20.47;8.40;;;;;;;;;;4988751;28;20213;-81
2022/05/03 10:40:17;;;;;;;14.47;7.50;;;;;;;;;;4990335;28;20208;-81
2022/05/03 10:43:04;;;;;;;17.90;7.77;;;;;;;;;;4992254;28;20260;-81
2022/05/03 10:45:41;;;;;;;12.20;7.47;;;;;;;;;;4988935;28;20214;-80
2022/05/03 10:48:23;;;;;;;10.40;6.90;;;;;;;;;;4986478;28;20207;-81
2022/05/03 10:50:55;;;;;;;12.73;7.30;;;;;;;;;;4990445;28;20236;-82
2022/05/03 10:53:27;;;;;;;10.77;7.37;;;;;;;;;;4984029;28;20773;-82
2022/05/03 10:56:18;;;;;;;11.00;6.83;;;;;;;;;;4987685;28;20208;-82
2022/05/03 10:58:47;;;;;;;10.80;6.90;;;;;;;;;;4987981;28;20691;-81
2022/05/03 11:01:17;;;;;;;11.13;7.40;;;;;;;;;;4990947;28;20197;-80
2022/05/03 11:03:59;;;;;;;14.13;7.03;;;;;;;;;;4991450;28;20279;-81
2022/05/03 11:06:47;;;;;;;12.83;7.07;;;;;;;;;;4990996;28;20209;-81
2022/05/03 11:09:16;;;;;;;12.87;7.27;;;;;;;;;;4989071;28;20201;-81
2022/05/03 11:11:53;;;;;;;12.93;7.80;;;;;;;;;;4980919;28;20234;-82
2022/05/03 11:14:39;;;;;;;14.30;8.20;;;;;;;;;;4981650;28;20259;-82
2022/05/03 11:17:08;;;;;;;10.63;7.43;;;;;;;;;;4981354;28;20212;-82
2022/05/03 11:19:36;;;;;;;12.00;8.00;;;;;;;;;;4981103;28;20237;-82
2022/05/03 11:22:09;;;;;;;11.20;7.00;;;;;;;;;;4981584;28;20300;-81
2022/05/03 11:24:41;;;;;;;13.30;7.83;;;;;;;;;;4977252;28;20277;-81
2022/05/03 11:27:10;;;;;;;12.20;7.60;;;;;;;;;;4982414;28;20291;-82
2022/05/03 11:29:41;;;;;;;11.80;7.20;;;;;;;;;;4993614;28;20196;-80
2022/05/03 11:32:12;;;;;;;10.77;7.27;;;;;;;;;;5008081;28;20279;-81
2022/05/03 11:34:39;;;;;;;13.40;7.50;;;;;;;;;;4990868;28;20288;-82
2022/05/03 11:37:08;;;;;;;10.90;6.60;;;;;;;;;;4983084;28;20217;-82
2022/05/03 11:39:36;;;;;;;18.37;7.97;;;;;;;;;;4983520;28;20221;-82
2022/05/03 11:42:04;;;;;;;12.57;7.10;;;;;;;;;;4981466;28;20268;-82
2022/05/03 11:44:32;;;;;;;13.50;7.37;;;;;;;;;;4985990;28;20241;-82
2022/05/03 11:47:03;;;;;;;11.33;7.40;;;;;;;;;;4983438;28;20300;-82
2022/05/03 11:49:36;;;;;;;9.90;7.00;;;;;;;;;;4981981;28;20215;-82
2022/05/03 11:57:36;;;;;;;11.53;7.03;;;;;;;;;;4985276;28;20216;-83
2022/05/03 12:00:05;;;;;;;13.23;7.10;;;;;;;;;;4982609;28;20549;-82
2022/05/03 12:02:33;;;;;;;11.77;7.07;;;;;;;;;;4985984;28;20343;-82
2022/05/03 12:05:02;;;;;;;13.93;6.87;;;;;;;;;;4980566;28;20242;-82
2022/05/03 12:07:36;;;;;;;10.17;6.60;;;;;;;;;;4984522;28;20300;-83
2022/05/03 12:10:15;;;;;;;14.13;6.83;;;;;;;;;;4989719;28;20212;-81
2022/05/03 12:12:58;;;;;;;12.53;6.73;;;;;;;;;;4986083;28;20809;-81
2022/05/03 12:15:25;;;;;;;11.77;6.60;;;;;;;;;;4986030;28;20212;-81
2022/05/03 12:17:54;;;;;;;13.07;6.30;;;;;;;;;;4982847;28;20209;-81
2022/05/03 12:20:28;;;;;;;12.00;6.30;;;;;;;;;;4983700;28;20224;-81
2022/05/03 12:23:25;;;;;;;10.50;6.10;;;;;;;;;;4993220;28;20247;-81
2022/05/03 12:25:55;;;;;;;8.73;5.97;;;;;;;;;;5002951;28;20830;-81
2022/05/03 12:28:35;;;;;;;14.03;6.37;;;;;;;;;;4987944;28;20220;-81
2022/05/03 12:31:04;;;;;;;10.30;5.73;;;;;;;;;;4989037;28;20235;-81
2022/05/03 12:33:32;;;;;;;9.27;6.10;;;;;;;;;;4988970;28;20241;-80
2022/05/03 12:36:02;;;;;;;12.97;6.03;;;;;;;;;;4988769;28;20205;-80
2022/05/03 12:38:32;;;;;;;14.07;6.80;;;;;;;;;;4983610;28;20647;-80
2022/05/03 12:41:05;;;;;;;11.53;6.10;;;;;;;;;;4991611;28;20376;-80
2022/05/03 12:43:32;;;;;;;11.43;6.27;;;;;;;;;;4996978;23;21005;-77
2022/05/03 12:46:00;;;;;;;9.40;6.03;;;;;;;;;;4977175;28;20682;-76
2022/05/03 12:48:28;;;;;;;10.07;6.50;;;;;;;;;;4977132;28;20209;-77
2022/05/03 12:50:56;;;;;;;8.73;5.77;;;;;;;;;;4982592;28;20205;-77
2022/05/03 12:53:26;;;;;;;9.67;5.97;;;;;;;;;;4983016;28;21168;-76
2022/05/03 12:55:53;;;;;;;8.43;5.30;;;;;;;;;;4980949;28;20228;-76
2022/05/03 12:58:27;;;;;;;15.07;6.17;;;;;;;;;;4979993;28;20213;-75
2022/05/03 13:00:55;;;;;;;12.37;5.70;;;;;;;;;;4976217;28;20671;-76
2022/05/03 13:03:22;;;;;;;10.47;6.73;;;;;;;;;;4980760;28;20580;-76
2022/05/03 13:05:49;;;;;;;12.73;6.23;;;;;;;;;;4977480;28;20759;-77
2022/05/03 13:08:17;;;;;;;9.67;5.80;;;;;;;;;;4979841;28;20323;-76
2022/05/03 13:10:44;;;;;;;8.67;5.60;;;;;;;;;;4979556;28;20693;-76
2022/05/03 13:13:12;;;;;;;10.60;5.47;;;;;;;;;;4979242;28;20233;-77
2022/05/03 13:15:40;;;;;;;14.27;5.87;;;;;;;;;;4979049;28;20250;-78
2022/05/03 13:18:08;;;;;;;8.67;5.57;;;;;;;;;;4973689;28;20205;-76
2022/05/03 13:20:35;;;;;;;8.70;5.90;;;;;;;;;;4976877;28;20311;-74
2022/05/03 13:23:07;;;;;;;10.93;6.00;;;;;;;;;;4972487;28;20228;-74
2022/05/03 13:25:35;;;;;;;17.20;6.33;;;;;;;;;;4972329;28;20236;-73
2022/05/03 13:28:05;;;;;;;11.13;6.03;;;;;;;;;;4973935;28;20209;-74
2022/05/03 13:30:33;;;;;;;12.10;5.80;;;;;;;;;;4974822;28;20217;-73
2022/05/03 13:33:03;;;;;;;9.17;4.97;;;;;;;;;;4967501;28;21812;-74
2022/05/03 13:41:00;;;;;;;10.97;5.73;;;;;;;;;;4978562;28;20293;-73
2022/05/03 13:43:28;;;;;;;7.93;5.63;;;;;;;;;;4970644;28;20704;-74
2022/05/03 13:45:56;;;;;;;10.30;5.47;;;;;;;;;;4978127;28;20213;-73
2022/05/03 13:48:24;;;;;;;9.50;6.07;;;;;;;;;;4975794;28;20567;-74
2022/05/03 13:50:51;;;;;;;15.53;6.00;;;;;;;;;;4976948;28;20563;-74
2022/05/03 13:53:18;;;;;;;10.33;5.63;;;;;;;;;;4973831;28;20220;-74
2022/05/03 13:55:46;;;;;;;8.10;5.87;;;;;;;;;;4972251;28;20201;-73
2022/05/03 13:58:13;;;;;;;10.43;5.57;;;;;;;;;;4976136;28;20815;-73
2022/05/03 14:00:41;;;;;;;13.97;6.63;;;;;;;;;;4973913;28;20207;-74
2022/05/03 14:03:12;;;;;;;11.40;5.90;;;;;;;;;;4973762;28;20223;-74
2022/05/03 14:05:41;;;;;;;13.13;6.83;;;;;;;;;;4971752;28;20296;-74
2022/05/03 14:08:10;;;;;;;9.40;5.70;;;;;;;;;;4970156;28;20670;-74
2022/05/03 14:10:37;;;;;;;9.60;5.77;;;;;;;;;;4971871;28;20228;-74
2022/05/03 14:13:04;;;;;;;9.97;6.27;;;;;;;;;;4971107;28;20323;-73
2022/05/03 14:15:31;;;;;;;12.53;5.77;;;;;;;;;;4975723;28;20471;-74
2022/05/03 14:17:59;;;;;;;14.30;6.00;;;;;;;;;;4967709;28;20311;-73
2022/05/03 14:20:26;;;;;;;7.30;5.40;;;;;;;;;;4968624;28;20211;-73
2022/05/03 14:22:55;;;;;;;7.93;5.60;;;;;;;;;;4973180;28;20239;-74
2022/05/03 14:25:23;;;;;;;10.33;6.37;;;;;;;;;;4976177;28;20213;-73
2022/05/03 14:27:50;;;;;;;8.40;5.50;;;;;;;;;;4972463;28;20642;-74
2022/05/03 14:30:18;;;;;;;12.20;6.20;;;;;;;;;;4973330;28;20450;-74
2022/05/03 14:32:46;;;;;;;10.00;6.43;;;;;;;;;;4975616;28;20311;-74
2022/05/03 14:35:14;;;;;;;10.73;6.10;;;;;;;;;;4972967;28;20231;-74
2022/05/03 14:37:41;;;;;;;11.67;6.00;;;;;;;;;;4974614;28;20209;-74
2022/05/03 14:40:10;;;;;;;12.93;5.57;;;;;;;;;;4974791;28;20682;-74
2022/05/03 14:42:38;;;;;;;11.20;6.17;;;;;;;;;;4975069;28;20260;-74
2022/05/03 14:45:06;;;;;;;8.60;6.07;;;;;;;;;;4976118;28;20216;-74
2022/05/03 14:47:33;;;;;;;14.40;6.43;;;;;;;;;;4971991;28;20231;-74
2022/05/03 14:50:00;;;;;;;9.30;6.50;;;;;;;;;;4968345;28;20206;-74
2022/05/03 14:52:27;;;;;;;9.53;6.13;;;;;;;;;;4974474;28;20798;-74
2022/05/03 14:54:54;;;;;;;9.90;6.63;;;;;;;;;;4971989;28;20208;-74
2022/05/03 15:02:54;;;;;;;8.20;5.27;;;;;;;;;;4971688;28;20236;-74
2022/05/03 15:05:21;;;;;;;12.07;5.43;;;;;;;;;;4976428;28;20640;-74
2022/05/03 15:07:48;;;;;;;9.97;5.73;;;;;;;;;;4974159;28;20620;-76
2022/05/03 15:10:16;;;;;;;15.30;6.20;;;;;;;;;;4977926;28;20808;-74
2022/05/03 15:12:45;;;;;;;10.57;6.10;;;;;;;;;;4974117;28;20299;-73
2022/05/03 15:15:16;;;;;;;13.03;5.63;;;;;;;;;;4970599;28;20201;-72
2022/05/03 15:17:44;;;;;;;13.93;5.80;;;;;;;;;;4973658;28;20279;-73
2022/05/03 15:20:11;;;;;;;11.20;5.63;;;;;;;;;;4968067;28;21401;-73
2022/05/03 15:25:29;;;;;;;9.80;5.67;;;;;;;;;;4931260;28;20680;-73
2022/05/03 15:27:57;;;;;;;7.50;5.43;;;;;;;;;;4974450;28;20299;-72
2022/05/03 15:30:25;;;;;;;8.93;5.10;;;;;;;;;;4972680;28;20564;-74
2022/05/03 15:32:52;;;;;;;9.93;5.83;;;;;;;;;;4973502;28;20267;-73